createdAt,value
2018-09-30T00:00:30.836Z,9.44
2018-09-30T00:01:30.805Z,9.47
2018-09-30T00:02:30.778Z,9.40
2018-09-30T00:03:30.759Z,9.43
2018-09-30T00:04:30.724Z,9.37
2018-09-30T00:05:30.701Z,9.34
2018-09-30T00:06:30.679Z,9.40
2018-09-30T00:07:30.640Z,9.37
2018-09-30T00:08:30.619Z,9.32
2018-09-30T00:09:30.592Z,9.23
2018-09-30T00:10:30.565Z,9.28
2018-09-30T00:11:30.541Z,9.37
2018-09-30T00:12:30.509Z,9.31
2018-09-30T00:13:30.483Z,9.37
2018-09-30T00:14:30.460Z,9.39
2018-09-30T00:15:30.427Z,9.37
2018-09-30T00:16:30.399Z,9.26
2018-09-30T00:17:30.375Z,9.29
2018-09-30T00:18:30.346Z,9.25
2018-09-30T00:19:30.382Z,9.25
2018-09-30T00:20:30.293Z,9.16
2018-09-30T00:21:30.267Z,9.21
2018-09-30T00:22:30.240Z,9.18
2018-09-30T00:23:30.211Z,9.11
2018-09-30T00:24:30.183Z,9.10
2018-09-30T00:25:30.163Z,9.16
2018-09-30T00:26:30.128Z,9.08
2018-09-30T00:27:30.109Z,9.11
2018-09-30T00:28:30.076Z,9.04
2018-09-30T00:29:30.057Z,9.04
2018-09-30T00:30:30.028Z,9.03
2018-09-30T00:31:29.991Z,9.04
2018-09-30T00:32:29.967Z,9.11
2018-09-30T00:33:29.948Z,9.03
2018-09-30T00:34:29.913Z,9.10
2018-09-30T00:35:29.884Z,8.97
2018-09-30T00:36:29.859Z,8.92
2018-09-30T00:37:29.826Z,8.99
2018-09-30T00:38:29.804Z,9.02
2018-09-30T00:39:29.773Z,8.95
2018-09-30T00:40:29.747Z,9.00
2018-09-30T00:41:29.729Z,8.89
2018-09-30T00:42:29.699Z,9.04
2018-09-30T00:43:29.674Z,9.04
2018-09-30T00:44:29.648Z,9.10
2018-09-30T00:45:29.610Z,9.22
2018-09-30T00:46:29.586Z,9.08
2018-09-30T00:47:29.562Z,9.13
2018-09-30T00:48:29.531Z,9.18
2018-09-30T00:49:29.501Z,9.13
2018-09-30T00:50:29.485Z,9.11
2018-09-30T00:51:29.445Z,9.08
2018-09-30T00:52:29.426Z,9.13
2018-09-30T00:53:29.398Z,9.13
2018-09-30T00:54:29.365Z,9.03
2018-09-30T00:55:29.348Z,9.08
2018-09-30T00:56:29.312Z,9.03
2018-09-30T00:57:29.311Z,9.02
2018-09-30T00:58:29.256Z,9.03
2018-09-30T00:59:29.237Z,9.06
2018-09-30T01:00:29.210Z,9.14
2018-09-30T01:01:29.175Z,9.11
2018-09-30T01:02:29.158Z,9.06
2018-09-30T01:03:29.121Z,9.10
2018-09-30T01:04:29.099Z,9.11
2018-09-30T01:05:29.074Z,9.10
2018-09-30T01:06:29.048Z,9.10
2018-09-30T01:07:29.017Z,8.99
2018-09-30T01:08:28.985Z,9.18
2018-09-30T01:09:28.961Z,9.10
2018-09-30T01:10:28.936Z,9.14
2018-09-30T01:11:28.905Z,9.04
2018-09-30T01:12:28.889Z,9.14
2018-09-30T01:13:28.850Z,9.13
2018-09-30T01:14:28.825Z,9.10
2018-09-30T01:15:28.813Z,9.10
2018-09-30T01:16:28.770Z,9.02
2018-09-30T01:17:28.748Z,8.94
2018-09-30T01:18:28.724Z,8.99
2018-09-30T01:19:28.686Z,8.94
2018-09-30T01:20:28.662Z,9.03
2018-09-30T01:21:28.632Z,8.99
2018-09-30T01:22:28.604Z,8.99
2018-09-30T01:23:28.577Z,9.02
2018-09-30T01:24:28.559Z,8.95
2018-09-30T01:25:28.526Z,9.02
2018-09-30T01:26:28.496Z,8.97
2018-09-30T01:27:28.473Z,8.97
2018-09-30T01:28:28.441Z,9.04
2018-09-30T01:29:28.424Z,8.97
2018-09-30T01:30:28.392Z,9.04
2018-09-30T01:31:28.361Z,9.00
2018-09-30T01:32:28.339Z,9.04
2018-09-30T01:33:28.303Z,9.03
2018-09-30T01:34:28.280Z,9.02
2018-09-30T01:35:28.253Z,9.00
2018-09-30T01:36:28.223Z,8.97
2018-09-30T01:37:28.199Z,8.97
2018-09-30T01:38:28.169Z,9.02
2018-09-30T01:39:28.145Z,8.99
2018-09-30T01:40:28.116Z,8.99
2018-09-30T01:41:28.088Z,8.85
2018-09-30T01:42:28.064Z,8.95
2018-09-30T01:43:28.043Z,8.91
2018-09-30T01:44:28.007Z,8.88
2018-09-30T01:45:27.982Z,8.76
2018-09-30T01:46:27.954Z,8.87
2018-09-30T01:47:27.926Z,8.89
2018-09-30T01:48:27.904Z,8.85
2018-09-30T01:49:27.877Z,8.76
2018-09-30T01:50:27.849Z,8.82
2018-09-30T01:51:27.815Z,8.74
2018-09-30T01:52:27.793Z,8.71
2018-09-30T01:53:27.763Z,8.74
2018-09-30T01:54:27.732Z,8.79
2018-09-30T01:55:27.714Z,8.67
2018-09-30T01:56:27.686Z,8.70
2018-09-30T01:57:27.649Z,8.71
2018-09-30T01:58:27.634Z,8.61
2018-09-30T01:59:27.601Z,8.60
2018-09-30T02:00:27.567Z,8.63
2018-09-30T02:01:27.550Z,8.67
2018-09-30T02:02:27.515Z,8.73
2018-09-30T02:03:27.496Z,8.70
2018-09-30T02:04:27.468Z,8.66
2018-09-30T02:05:27.443Z,8.63
2018-09-30T02:06:27.421Z,8.70
2018-09-30T02:07:27.379Z,8.67
2018-09-30T02:08:27.353Z,8.61
2018-09-30T02:09:27.328Z,8.60
2018-09-30T02:10:27.304Z,8.66
2018-09-30T02:11:27.266Z,8.64
2018-09-30T02:12:27.257Z,8.67
2018-09-30T02:13:27.223Z,8.69
2018-09-30T02:14:27.186Z,8.66
2018-09-30T02:15:27.170Z,8.67
2018-09-30T02:16:27.140Z,8.67
2018-09-30T02:17:27.109Z,8.66
2018-09-30T02:18:27.082Z,8.66
2018-09-30T02:19:27.057Z,8.66
2018-09-30T02:20:27.027Z,8.61
2018-09-30T02:21:27.004Z,8.66
2018-09-30T02:22:26.974Z,8.58
2018-09-30T02:23:26.945Z,8.63
2018-09-30T02:24:26.922Z,8.63
2018-09-30T02:25:26.890Z,8.55
2018-09-30T02:26:26.859Z,8.58
2018-09-30T02:27:26.837Z,8.56
2018-09-30T02:28:26.807Z,8.55
2018-09-30T02:29:26.776Z,8.63
2018-09-30T02:30:26.755Z,8.61
2018-09-30T02:31:26.727Z,8.66
2018-09-30T02:32:26.697Z,8.60
2018-09-30T02:33:26.679Z,8.58
2018-09-30T02:34:26.647Z,8.63
2018-09-30T02:35:26.615Z,8.70
2018-09-30T02:36:26.599Z,8.61
2018-09-30T02:37:26.558Z,8.63
2018-09-30T02:38:26.540Z,8.67
2018-09-30T02:39:26.515Z,8.61
2018-09-30T02:40:26.487Z,8.55
2018-09-30T02:41:26.454Z,8.55
2018-09-30T02:42:26.434Z,8.56
2018-09-30T02:43:26.403Z,8.66
2018-09-30T02:44:26.373Z,8.56
2018-09-30T02:45:26.358Z,8.51
2018-09-30T02:46:26.318Z,8.51
2018-09-30T02:47:26.288Z,8.58
2018-09-30T02:48:26.265Z,8.51
2018-09-30T02:49:26.241Z,8.49
2018-09-30T02:50:26.205Z,8.53
2018-09-30T02:51:26.184Z,8.51
2018-09-30T02:52:26.155Z,8.53
2018-09-30T02:53:26.127Z,8.51
2018-09-30T02:54:26.104Z,8.51
2018-09-30T02:55:26.069Z,8.48
2018-09-30T02:56:26.042Z,8.53
2018-09-30T02:57:26.025Z,8.51
2018-09-30T02:58:25.984Z,8.58
2018-09-30T02:59:25.971Z,8.51
2018-09-30T03:00:25.943Z,8.48
2018-09-30T03:01:25.910Z,8.48
2018-09-30T03:02:25.894Z,8.38
2018-09-30T03:03:25.859Z,8.41
2018-09-30T03:04:25.820Z,8.46
2018-09-30T03:05:25.804Z,8.48
2018-09-30T03:06:25.773Z,8.37
2018-09-30T03:07:25.749Z,8.46
2018-09-30T03:08:25.719Z,8.37
2018-09-30T03:09:25.687Z,8.36
2018-09-30T03:10:25.666Z,8.36
2018-09-30T03:11:25.631Z,8.34
2018-09-30T03:12:25.605Z,8.36
2018-09-30T03:13:25.580Z,8.28
2018-09-30T03:14:25.574Z,8.26
2018-09-30T03:15:25.526Z,8.33
2018-09-30T03:16:25.493Z,8.28
2018-09-30T03:17:25.468Z,8.33
2018-09-30T03:18:25.446Z,8.28
2018-09-30T03:19:25.413Z,8.30
2018-09-30T03:20:25.393Z,8.26
2018-09-30T03:21:25.364Z,8.27
2018-09-30T03:22:25.337Z,8.27
2018-09-30T03:23:25.302Z,8.24
2018-09-30T03:24:25.297Z,8.26
2018-09-30T03:25:25.258Z,8.18
2018-09-30T03:26:25.217Z,8.15
2018-09-30T03:27:25.198Z,8.18
2018-09-30T03:28:25.166Z,8.18
2018-09-30T03:29:25.137Z,8.13
2018-09-30T03:30:25.120Z,8.15
2018-09-30T03:31:25.092Z,8.15
2018-09-30T03:32:25.065Z,8.15
2018-09-30T03:33:25.034Z,8.06
2018-09-30T03:34:25.015Z,8.10
2018-09-30T03:35:24.968Z,8.12
2018-09-30T03:36:24.945Z,8.06
2018-09-30T03:37:24.924Z,8.10
2018-09-30T03:38:24.893Z,8.10
2018-09-30T03:39:24.916Z,8.10
2018-09-30T03:40:24.841Z,8.05
2018-09-30T03:41:24.805Z,8.10
2018-09-30T03:42:24.786Z,8.01
2018-09-30T03:43:24.758Z,8.10
2018-09-30T03:44:24.733Z,8.00
2018-09-30T03:45:24.700Z,8.00
2018-09-30T03:46:24.673Z,7.95
2018-09-30T03:47:24.648Z,8.00
2018-09-30T03:48:24.619Z,7.98
2018-09-30T03:49:24.605Z,8.01
2018-09-30T03:50:24.565Z,7.90
2018-09-30T03:51:24.548Z,7.91
2018-09-30T03:52:24.513Z,8.01
2018-09-30T03:53:24.484Z,8.01
2018-09-30T03:54:24.452Z,8.00
2018-09-30T03:55:24.427Z,7.98
2018-09-30T03:56:24.396Z,7.97
2018-09-30T03:57:24.377Z,8.01
2018-09-30T03:58:24.399Z,7.90
2018-09-30T03:59:24.313Z,7.87
2018-09-30T04:00:24.290Z,7.82
2018-09-30T04:01:24.265Z,7.87
2018-09-30T04:02:24.232Z,7.87
2018-09-30T04:03:24.209Z,7.93
2018-09-30T04:04:24.184Z,7.87
2018-09-30T04:05:24.154Z,7.90
2018-09-30T04:06:24.128Z,7.83
2018-09-30T04:07:24.093Z,7.79
2018-09-30T04:08:24.073Z,7.83
2018-09-30T04:09:24.085Z,7.87
2018-09-30T04:10:24.016Z,7.85
2018-09-30T04:11:23.991Z,7.90
2018-09-30T04:12:23.966Z,7.90
2018-09-30T04:13:23.932Z,7.85
2018-09-30T04:14:23.917Z,7.80
2018-09-30T04:15:23.873Z,7.75
2018-09-30T04:16:23.854Z,7.80
2018-09-30T04:17:23.899Z,7.85
2018-09-30T04:18:23.793Z,7.75
2018-09-30T04:19:23.766Z,7.77
2018-09-30T04:20:23.747Z,7.72
2018-09-30T04:21:23.720Z,7.69
2018-09-30T04:22:23.688Z,7.73
2018-09-30T04:23:23.661Z,7.69
2018-09-30T04:24:23.626Z,7.67
2018-09-30T04:25:23.610Z,7.80
2018-09-30T04:26:23.580Z,7.76
2018-09-30T04:27:23.544Z,7.82
2018-09-30T04:28:23.527Z,7.76
2018-09-30T04:29:23.490Z,7.83
2018-09-30T04:30:23.461Z,7.80
2018-09-30T04:31:23.444Z,7.80
2018-09-30T04:32:23.404Z,7.79
2018-09-30T04:33:23.468Z,7.87
2018-09-30T04:34:23.364Z,7.83
2018-09-30T04:35:23.331Z,7.85
2018-09-30T04:36:23.303Z,7.82
2018-09-30T04:37:23.279Z,7.80
2018-09-30T04:38:23.256Z,7.82
2018-09-30T04:39:23.216Z,7.77
2018-09-30T04:40:23.185Z,7.79
2018-09-30T04:41:23.166Z,7.77
2018-09-30T04:42:23.140Z,7.77
2018-09-30T04:43:23.112Z,7.85
2018-09-30T04:44:23.083Z,7.79
2018-09-30T04:45:23.049Z,7.87
2018-09-30T04:46:23.023Z,7.90
2018-09-30T04:47:23.000Z,7.87
2018-09-30T04:48:22.978Z,7.90
2018-09-30T04:49:22.940Z,7.88
2018-09-30T04:50:22.919Z,7.87
2018-09-30T04:51:22.886Z,7.76
2018-09-30T04:52:22.868Z,7.87
2018-09-30T04:53:22.831Z,7.91
2018-09-30T04:54:22.804Z,7.75
2018-09-30T04:55:22.780Z,7.85
2018-09-30T04:56:22.757Z,7.83
2018-09-30T04:57:22.719Z,7.87
2018-09-30T04:58:22.693Z,7.91
2018-09-30T04:59:22.672Z,7.87
2018-09-30T05:00:22.657Z,7.83
2018-09-30T05:01:22.617Z,7.88
2018-09-30T05:02:22.592Z,7.91
2018-09-30T05:03:22.557Z,7.90
2018-09-30T05:04:22.527Z,7.83
2018-09-30T05:05:22.509Z,7.87
2018-09-30T05:06:22.470Z,7.90
2018-09-30T05:07:22.451Z,7.79
2018-09-30T05:08:22.428Z,7.79
2018-09-30T05:09:22.393Z,7.80
2018-09-30T05:10:22.372Z,7.77
2018-09-30T05:11:22.331Z,7.82
2018-09-30T05:12:22.315Z,7.72
2018-09-30T05:13:22.281Z,7.75
2018-09-30T05:14:22.262Z,7.67
2018-09-30T05:15:22.231Z,7.67
2018-09-30T05:16:22.256Z,7.73
2018-09-30T05:17:22.179Z,7.69
2018-09-30T05:18:22.146Z,7.70
2018-09-30T05:19:22.115Z,7.72
2018-09-30T05:20:22.092Z,7.67
2018-09-30T05:21:22.061Z,7.67
2018-09-30T05:22:22.036Z,7.72
2018-09-30T05:23:22.004Z,7.72
2018-09-30T05:24:21.988Z,7.70
2018-09-30T05:25:21.949Z,7.72
2018-09-30T05:26:21.931Z,7.69
2018-09-30T05:27:21.899Z,7.66
2018-09-30T05:28:21.864Z,7.66
2018-09-30T05:29:21.840Z,7.70
2018-09-30T05:30:21.813Z,7.69
2018-09-30T05:31:21.842Z,7.61
2018-09-30T05:32:21.762Z,7.56
2018-09-30T05:33:21.728Z,7.60
2018-09-30T05:34:21.705Z,7.54
2018-09-30T05:35:21.676Z,7.50
2018-09-30T05:36:21.657Z,7.56
2018-09-30T05:37:21.618Z,7.69
2018-09-30T05:38:21.593Z,7.61
2018-09-30T05:39:21.571Z,7.75
2018-09-30T05:40:21.539Z,7.72
2018-09-30T05:41:21.509Z,7.72
2018-09-30T05:42:21.497Z,7.70
2018-09-30T05:43:21.454Z,7.67
2018-09-30T05:44:21.425Z,7.73
2018-09-30T05:45:21.398Z,7.66
2018-09-30T05:46:21.374Z,7.69
2018-09-30T05:47:21.349Z,7.66
2018-09-30T05:48:21.325Z,7.69
2018-09-30T05:49:21.294Z,7.66
2018-09-30T05:50:21.265Z,7.60
2018-09-30T05:51:21.240Z,7.72
2018-09-30T05:52:21.211Z,7.80
2018-09-30T05:53:21.180Z,7.79
2018-09-30T05:54:21.153Z,7.80
2018-09-30T05:55:21.130Z,7.77
2018-09-30T05:56:21.102Z,7.77
2018-09-30T05:57:21.068Z,7.80
2018-09-30T05:58:21.049Z,7.83
2018-09-30T05:59:21.013Z,7.80
2018-09-30T06:00:20.989Z,7.87
2018-09-30T06:01:20.970Z,7.83
2018-09-30T06:02:20.928Z,7.83
2018-09-30T06:03:20.912Z,7.76
2018-09-30T06:04:20.890Z,7.83
2018-09-30T06:05:20.861Z,7.82
2018-09-30T06:06:20.829Z,7.85
2018-09-30T06:07:20.796Z,7.83
2018-09-30T06:08:20.766Z,7.85
2018-09-30T06:09:20.798Z,7.82
2018-09-30T06:10:20.713Z,7.88
2018-09-30T06:11:20.685Z,7.88
2018-09-30T06:12:20.655Z,7.88
2018-09-30T06:13:20.740Z,7.79
2018-09-30T06:14:20.634Z,7.73
2018-09-30T06:15:20.591Z,7.80
2018-09-30T06:16:20.551Z,7.67
2018-09-30T06:17:20.523Z,7.77
2018-09-30T06:18:20.513Z,7.76
2018-09-30T06:19:20.462Z,7.73
2018-09-30T06:20:20.435Z,7.66
2018-09-30T06:21:20.433Z,7.69
2018-09-30T06:22:20.394Z,7.61
2018-09-30T06:23:20.374Z,7.56
2018-09-30T06:24:20.325Z,7.54
2018-09-30T06:25:20.306Z,7.53
2018-09-30T06:26:20.278Z,7.45
2018-09-30T06:27:20.244Z,7.48
2018-09-30T06:28:20.218Z,7.56
2018-09-30T06:29:20.185Z,7.54
2018-09-30T06:30:20.163Z,7.53
2018-09-30T06:31:20.139Z,7.57
2018-09-30T06:32:20.105Z,7.61
2018-09-30T06:33:20.103Z,7.70
2018-09-30T06:34:20.055Z,7.63
2018-09-30T06:35:20.042Z,7.69
2018-09-30T06:36:20.003Z,7.60
2018-09-30T06:37:19.995Z,7.53
2018-09-30T06:38:19.942Z,7.56
2018-09-30T06:39:19.917Z,7.56
2018-09-30T06:40:19.981Z,7.51
2018-09-30T06:41:19.862Z,7.53
2018-09-30T06:42:19.861Z,7.60
2018-09-30T06:43:19.805Z,7.69
2018-09-30T06:44:19.785Z,7.77
2018-09-30T06:45:19.758Z,7.77
2018-09-30T06:46:19.725Z,7.76
2018-09-30T06:47:19.704Z,7.77
2018-09-30T06:48:19.672Z,7.76
2018-09-30T06:49:19.645Z,7.79
2018-09-30T06:50:19.660Z,7.83
2018-09-30T06:51:19.631Z,7.98
2018-09-30T06:52:19.570Z,8.01
2018-09-30T06:53:19.533Z,7.98
2018-09-30T06:54:19.501Z,8.09
2018-09-30T06:55:19.473Z,8.10
2018-09-30T06:56:19.444Z,8.15
2018-09-30T06:57:19.437Z,8.26
2018-09-30T06:58:19.389Z,8.27
2018-09-30T06:59:19.372Z,8.24
2018-09-30T07:00:19.346Z,8.24
2018-09-30T07:01:19.307Z,8.30
2018-09-30T07:02:19.288Z,8.28
2018-09-30T07:03:19.256Z,8.33
2018-09-30T07:04:19.225Z,8.44
2018-09-30T07:05:19.201Z,8.37
2018-09-30T07:06:19.172Z,8.44
2018-09-30T07:07:19.149Z,8.48
2018-09-30T07:08:19.123Z,8.37
2018-09-30T07:09:19.093Z,8.45
2018-09-30T07:10:19.072Z,8.52
2018-09-30T07:11:19.038Z,8.49
2018-09-30T07:12:19.017Z,8.51
2018-09-30T07:13:18.980Z,8.56
2018-09-30T07:14:18.951Z,8.55
2018-09-30T07:15:18.935Z,8.61
2018-09-30T07:16:18.900Z,8.60
2018-09-30T07:17:18.879Z,8.61
2018-09-30T07:18:18.850Z,8.66
2018-09-30T07:19:18.818Z,8.73
2018-09-30T07:20:18.791Z,8.70
2018-09-30T07:21:18.765Z,8.71
2018-09-30T07:22:18.805Z,8.71
2018-09-30T07:23:18.704Z,8.76
2018-09-30T07:24:18.682Z,8.84
2018-09-30T07:25:18.652Z,8.82
2018-09-30T07:26:18.621Z,8.84
2018-09-30T07:27:18.603Z,8.84
2018-09-30T07:28:18.576Z,8.78
2018-09-30T07:29:18.545Z,8.92
2018-09-30T07:30:18.518Z,8.92
2018-09-30T07:31:18.491Z,8.99
2018-09-30T07:32:18.473Z,8.99
2018-09-30T07:33:18.445Z,9.04
2018-09-30T07:34:18.407Z,9.02
2018-09-30T07:35:18.391Z,9.06
2018-09-30T07:36:18.354Z,9.11
2018-09-30T07:37:18.326Z,9.19
2018-09-30T07:38:18.293Z,9.03
2018-09-30T07:39:18.279Z,9.04
2018-09-30T07:40:18.241Z,9.13
2018-09-30T07:41:18.217Z,9.21
2018-09-30T07:42:18.192Z,9.26
2018-09-30T07:43:18.160Z,9.28
2018-09-30T07:44:18.133Z,9.36
2018-09-30T07:45:18.108Z,9.34
2018-09-30T07:46:18.081Z,9.40
2018-09-30T07:47:18.053Z,9.44
2018-09-30T07:48:18.020Z,9.46
2018-09-30T07:49:18.009Z,9.48
2018-09-30T07:50:17.975Z,9.54
2018-09-30T07:51:17.943Z,9.50
2018-09-30T07:52:17.916Z,9.56
2018-09-30T07:53:17.888Z,9.54
2018-09-30T07:54:17.862Z,9.61
2018-09-30T07:55:17.840Z,9.62
2018-09-30T07:56:17.806Z,9.74
2018-09-30T07:57:17.779Z,9.73
2018-09-30T07:58:17.754Z,9.74
2018-09-30T07:59:17.729Z,9.83
2018-09-30T08:00:17.693Z,9.83
2018-09-30T08:01:17.675Z,9.87
2018-09-30T08:02:17.645Z,9.95
2018-09-30T08:03:17.622Z,9.95
2018-09-30T08:04:17.596Z,9.97
2018-09-30T08:05:17.557Z,10.02
2018-09-30T08:06:17.545Z,10.07
2018-09-30T08:07:17.503Z,10.07
2018-09-30T08:08:17.478Z,10.15
2018-09-30T08:09:17.454Z,10.13
2018-09-30T08:10:17.427Z,10.19
2018-09-30T08:11:17.396Z,10.35
2018-09-30T08:12:17.376Z,10.26
2018-09-30T08:13:17.341Z,10.35
2018-09-30T08:14:17.315Z,10.30
2018-09-30T08:15:17.285Z,10.41
2018-09-30T08:16:17.264Z,10.49
2018-09-30T08:17:17.238Z,10.40
2018-09-30T08:18:17.216Z,10.51
2018-09-30T08:19:17.179Z,10.38
2018-09-30T08:20:17.157Z,10.44
2018-09-30T08:21:17.129Z,10.61
2018-09-30T08:22:17.097Z,10.61
2018-09-30T08:23:17.081Z,10.59
2018-09-30T08:24:17.105Z,10.64
2018-09-30T08:25:17.017Z,10.59
2018-09-30T08:26:16.989Z,10.74
2018-09-30T08:27:16.967Z,10.71
2018-09-30T08:28:16.932Z,10.68
2018-09-30T08:29:16.917Z,10.74
2018-09-30T08:30:16.887Z,10.82
2018-09-30T08:31:16.856Z,10.87
2018-09-30T08:32:16.834Z,10.94
2018-09-30T08:33:16.807Z,11.00
2018-09-30T08:34:16.778Z,11.00
2018-09-30T08:35:16.748Z,11.05
2018-09-30T08:36:16.726Z,11.04
2018-09-30T08:37:16.690Z,11.17
2018-09-30T08:38:16.682Z,11.12
2018-09-30T08:39:16.642Z,11.19
2018-09-30T08:40:16.610Z,11.18
2018-09-30T08:41:16.591Z,11.29
2018-09-30T08:42:16.727Z,11.30
2018-09-30T08:43:16.539Z,11.26
2018-09-30T08:44:16.598Z,11.35
2018-09-30T08:45:16.474Z,11.48
2018-09-30T08:46:16.465Z,11.50
2018-09-30T08:47:16.534Z,11.59
2018-09-30T08:48:16.401Z,11.59
2018-09-30T08:49:16.402Z,11.59
2018-09-30T08:50:16.343Z,11.62
2018-09-30T08:51:16.322Z,11.73
2018-09-30T08:52:16.295Z,11.75
2018-09-30T08:53:16.270Z,11.83
2018-09-30T08:54:16.241Z,11.84
2018-09-30T08:55:16.208Z,11.97
2018-09-30T08:56:16.233Z,11.99
2018-09-30T08:57:16.160Z,12.12
2018-09-30T08:58:16.134Z,12.10
2018-09-30T08:59:16.105Z,12.12
2018-09-30T09:00:16.082Z,12.17
2018-09-30T09:01:16.061Z,12.15
2018-09-30T09:02:16.032Z,12.17
2018-09-30T09:03:15.994Z,12.18
2018-09-30T09:04:15.966Z,12.18
2018-09-30T09:05:15.948Z,12.24
2018-09-30T09:06:15.915Z,12.40
2018-09-30T09:07:15.892Z,12.45
2018-09-30T09:08:15.879Z,12.42
2018-09-30T09:09:15.833Z,12.61
2018-09-30T09:10:15.815Z,12.53
2018-09-30T09:11:15.776Z,12.61
2018-09-30T09:12:15.753Z,12.72
2018-09-30T09:13:15.727Z,12.68
2018-09-30T09:14:15.703Z,12.73
2018-09-30T09:15:15.682Z,12.80
2018-09-30T09:16:15.653Z,12.79
2018-09-30T09:17:15.623Z,12.97
2018-09-30T09:18:15.593Z,13.01
2018-09-30T09:19:15.563Z,12.95
2018-09-30T09:20:15.546Z,13.01
2018-09-30T09:21:15.525Z,13.08
2018-09-30T09:22:15.519Z,13.16
2018-09-30T09:23:15.458Z,13.18
2018-09-30T09:24:15.437Z,13.20
2018-09-30T09:25:15.406Z,13.31
2018-09-30T09:26:15.384Z,13.28
2018-09-30T09:27:15.367Z,13.38
2018-09-30T09:28:15.330Z,13.30
2018-09-30T09:29:15.307Z,13.27
2018-09-30T09:30:15.277Z,13.33
2018-09-30T09:31:15.252Z,13.30
2018-09-30T09:32:15.227Z,13.35
2018-09-30T09:33:15.196Z,13.44
2018-09-30T09:34:15.197Z,13.42
2018-09-30T09:35:15.222Z,13.42
2018-09-30T09:36:15.118Z,13.50
2018-09-30T09:37:15.102Z,13.44
2018-09-30T09:38:15.068Z,13.35
2018-09-30T09:39:15.040Z,13.44
2018-09-30T09:40:15.012Z,13.46
2018-09-30T09:41:14.980Z,13.52
2018-09-30T09:42:14.957Z,13.54
2018-09-30T09:43:14.929Z,13.54
2018-09-30T09:44:14.904Z,13.59
2018-09-30T09:45:14.873Z,13.54
2018-09-30T09:46:14.848Z,13.57
2018-09-30T09:47:14.823Z,13.57
2018-09-30T09:48:14.798Z,13.68
2018-09-30T09:49:14.768Z,13.59
2018-09-30T09:50:14.746Z,13.59
2018-09-30T09:51:14.720Z,13.67
2018-09-30T09:52:14.689Z,13.65
2018-09-30T09:53:14.661Z,13.74
2018-09-30T09:54:14.632Z,13.71
2018-09-30T09:55:14.618Z,13.70
2018-09-30T09:56:14.580Z,13.74
2018-09-30T09:57:14.557Z,13.78
2018-09-30T09:58:14.537Z,13.74
2018-09-30T09:59:14.693Z,13.72
2018-09-30T10:00:14.479Z,13.72
2018-09-30T10:01:14.456Z,13.70
2018-09-30T10:02:14.419Z,13.71
2018-09-30T10:03:14.402Z,13.78
2018-09-30T10:04:14.369Z,13.77
2018-09-30T10:05:14.402Z,13.78
2018-09-30T10:06:14.326Z,13.90
2018-09-30T10:07:14.336Z,13.89
2018-09-30T10:08:14.286Z,13.89
2018-09-30T10:09:14.243Z,13.83
2018-09-30T10:10:14.215Z,13.86
2018-09-30T10:11:14.183Z,13.89
2018-09-30T10:12:14.160Z,13.92
2018-09-30T10:13:14.139Z,13.87
2018-09-30T10:14:14.104Z,13.93
2018-09-30T10:15:14.090Z,13.85
2018-09-30T10:16:14.054Z,13.93
2018-09-30T10:17:14.022Z,13.97
2018-09-30T10:18:14.009Z,13.99
2018-09-30T10:19:15.691Z,13.99
2018-09-30T10:20:13.950Z,13.99
2018-09-30T10:21:13.920Z,14.03
2018-09-30T10:22:13.895Z,14.08
2018-09-30T10:23:13.871Z,14.10
2018-09-30T10:24:13.842Z,14.15
2018-09-30T10:25:13.819Z,14.15
2018-09-30T10:26:13.787Z,14.15
2018-09-30T10:27:13.766Z,14.17
2018-09-30T10:28:13.740Z,14.08
2018-09-30T10:29:13.705Z,14.14
2018-09-30T10:30:13.690Z,14.15
2018-09-30T10:31:13.652Z,14.22
2018-09-30T10:32:13.634Z,14.22
2018-09-30T10:33:13.604Z,14.28
2018-09-30T10:34:13.573Z,14.30
2018-09-30T10:35:13.549Z,14.32
2018-09-30T10:36:13.530Z,14.30
2018-09-30T10:37:13.501Z,14.32
2018-09-30T10:38:13.493Z,14.33
2018-09-30T10:39:13.726Z,14.30
2018-09-30T10:40:13.426Z,14.30
2018-09-30T10:41:13.389Z,14.30
2018-09-30T10:42:13.366Z,14.29
2018-09-30T10:43:13.341Z,14.32
2018-09-30T10:44:13.316Z,14.32
2018-09-30T10:45:13.285Z,14.37
2018-09-30T10:46:13.273Z,14.43
2018-09-30T10:47:13.236Z,14.48
2018-09-30T10:48:13.215Z,14.43
2018-09-30T10:49:13.183Z,14.44
2018-09-30T10:50:13.155Z,14.44
2018-09-30T10:51:13.127Z,14.41
2018-09-30T10:52:13.099Z,14.43
2018-09-30T10:53:13.083Z,14.48
2018-09-30T10:54:13.049Z,14.47
2018-09-30T10:55:13.046Z,14.43
2018-09-30T10:56:12.993Z,14.43
2018-09-30T10:57:12.976Z,14.37
2018-09-30T10:58:12.942Z,14.44
2018-09-30T10:59:12.922Z,14.45
2018-09-30T11:00:12.890Z,14.48
2018-09-30T11:01:12.868Z,14.54
2018-09-30T11:02:12.850Z,14.53
2018-09-30T11:03:12.811Z,14.51
2018-09-30T11:04:12.819Z,14.53
2018-09-30T11:05:12.762Z,14.59
2018-09-30T11:06:12.747Z,14.65
2018-09-30T11:07:12.715Z,14.72
2018-09-30T11:08:12.697Z,14.70
2018-09-30T11:09:12.653Z,14.82
2018-09-30T11:10:12.654Z,14.73
2018-09-30T11:11:12.603Z,14.85
2018-09-30T11:12:13.232Z,14.77
2018-09-30T11:13:12.548Z,14.78
2018-09-30T11:14:12.532Z,14.84
2018-09-30T11:15:12.503Z,14.88
2018-09-30T11:16:12.589Z,14.77
2018-09-30T11:17:12.447Z,14.84
2018-09-30T11:18:12.421Z,14.77
2018-09-30T11:19:12.397Z,14.77
2018-09-30T11:20:12.365Z,14.84
2018-09-30T11:21:12.342Z,14.94
2018-09-30T11:22:12.316Z,14.94
2018-09-30T11:23:12.290Z,14.96
2018-09-30T11:24:12.264Z,15.02
2018-09-30T11:25:12.234Z,15.02
2018-09-30T11:26:12.212Z,15.02
2018-09-30T11:27:12.189Z,15.04
2018-09-30T11:28:12.164Z,15.07
2018-09-30T11:29:12.131Z,15.02
2018-09-30T11:30:12.102Z,15.02
2018-09-30T11:31:12.082Z,14.99
2018-09-30T11:32:12.058Z,15.02
2018-09-30T11:33:12.024Z,14.97
2018-09-30T11:34:12.013Z,15.07
2018-09-30T11:35:11.969Z,15.09
2018-09-30T11:36:11.953Z,15.06
2018-09-30T11:37:11.928Z,15.10
2018-09-30T11:38:11.898Z,15.10
2018-09-30T11:39:11.874Z,15.14
2018-09-30T11:40:11.853Z,15.10
2018-09-30T11:41:11.821Z,15.07
2018-09-30T11:42:11.796Z,15.17
2018-09-30T11:43:11.772Z,15.21
2018-09-30T11:44:11.738Z,15.14
2018-09-30T11:45:11.721Z,15.14
2018-09-30T11:46:11.687Z,15.17
2018-09-30T11:47:11.663Z,15.21
2018-09-30T11:48:11.638Z,15.19
2018-09-30T11:49:11.608Z,15.24
2018-09-30T11:50:11.698Z,15.19
2018-09-30T11:51:11.559Z,15.25
2018-09-30T11:52:11.530Z,15.37
2018-09-30T11:53:11.504Z,15.43
2018-09-30T11:54:11.482Z,15.42
2018-09-30T11:55:11.457Z,15.39
2018-09-30T11:56:11.428Z,15.42
2018-09-30T11:57:11.400Z,15.33
2018-09-30T11:58:11.381Z,15.37
2018-09-30T11:59:11.345Z,15.25
2018-09-30T12:00:11.340Z,15.35
2018-09-30T12:01:11.322Z,15.33
2018-09-30T12:02:11.290Z,15.35
2018-09-30T12:03:11.241Z,15.35
2018-09-30T12:04:11.239Z,15.37
2018-09-30T12:05:11.194Z,15.36
2018-09-30T12:06:11.164Z,15.42
2018-09-30T12:07:11.146Z,15.35
2018-09-30T12:08:11.117Z,15.51
2018-09-30T12:09:11.088Z,15.44
2018-09-30T12:10:11.058Z,15.47
2018-09-30T12:11:11.039Z,15.54
2018-09-30T12:12:11.007Z,15.64
2018-09-30T12:13:10.987Z,15.65
2018-09-30T12:14:10.963Z,15.72
2018-09-30T12:15:10.926Z,15.73
2018-09-30T12:16:10.906Z,15.84
2018-09-30T12:17:10.880Z,15.90
2018-09-30T12:18:10.857Z,15.83
2018-09-30T12:19:10.878Z,15.83
2018-09-30T12:20:10.806Z,15.86
2018-09-30T12:21:10.781Z,15.91
2018-09-30T12:22:10.747Z,15.82
2018-09-30T12:23:10.729Z,15.92
2018-09-30T12:24:10.702Z,15.90
2018-09-30T12:25:10.676Z,15.88
2018-09-30T12:26:10.644Z,15.86
2018-09-30T12:27:10.625Z,15.94
2018-09-30T12:28:10.597Z,15.95
2018-09-30T12:29:10.566Z,15.95
2018-09-30T12:30:10.544Z,15.97
2018-09-30T12:31:10.517Z,15.94
2018-09-30T12:32:10.491Z,16.10
2018-09-30T12:33:10.463Z,16.20
2018-09-30T12:34:10.436Z,16.17
2018-09-30T12:35:10.417Z,16.20
2018-09-30T12:36:10.383Z,16.15
2018-09-30T12:37:10.361Z,16.10
2018-09-30T12:38:10.340Z,16.10
2018-09-30T12:39:10.366Z,16.15
2018-09-30T12:40:10.283Z,16.23
2018-09-30T12:41:10.254Z,16.12
2018-09-30T12:42:10.230Z,16.13
2018-09-30T12:43:10.202Z,16.15
2018-09-30T12:44:10.183Z,16.15
2018-09-30T12:45:10.159Z,16.16
2018-09-30T12:46:10.125Z,16.17
2018-09-30T12:47:10.101Z,16.33
2018-09-30T12:48:10.073Z,16.36
2018-09-30T12:49:10.051Z,16.38
2018-09-30T12:50:10.026Z,16.39
2018-09-30T12:51:10.000Z,16.42
2018-09-30T12:52:09.974Z,16.32
2018-09-30T12:53:09.946Z,16.39
2018-09-30T12:54:09.942Z,16.41
2018-09-30T12:55:09.892Z,16.41
2018-09-30T12:56:09.870Z,16.41
2018-09-30T12:57:09.842Z,16.42
2018-09-30T12:58:09.856Z,16.38
2018-09-30T12:59:09.799Z,16.38
2018-09-30T13:00:09.766Z,16.46
2018-09-30T13:01:09.737Z,16.46
2018-09-30T13:02:09.724Z,16.47
2018-09-30T13:03:09.684Z,16.46
2018-09-30T13:04:09.655Z,16.43
2018-09-30T13:05:09.642Z,16.50
2018-09-30T13:06:09.618Z,16.53
2018-09-30T13:07:09.583Z,16.47
2018-09-30T13:08:09.565Z,16.49